Time;durP1;ratioP1;P1;durP2;ratioP2;P2;SDS_P1;SDS_P2;PMS_P1;PMS_P2;Temp;Humidity;BMP_temperature;BMP_pressure;BME280_temperature;BME280_humidity;BME280_pressure;Samples;Min_cycle;Max_cycle;Signal;HPM_P1;HPM_P2
2021/03/18 00:00:51;;;;;;;6.15;1.92;;;3.10;79.30;;;2.40;55.03;100780.66;5089172;28;20337;-45
2021/03/18 00:03:19;;;;;;;;;;;3.00;79.50;;;2.43;53.86;100789.97;5088255;28;20548;-48
2021/03/18 00:05:50;;;;;;;4.13;1.15;;;3.00;78.60;;;2.33;55.10;100792.22;5068922;28;20325;-45
2021/03/18 00:08:16;;;;;;;2.25;1.00;;;2.90;79.90;;;2.23;55.13;100797.03;5068434;28;20029;-45
2021/03/18 00:10:45;;;;;;;4.25;1.00;;;2.90;79.90;;;2.07;55.75;100803.91;5088503;28;20032;-40
2021/03/18 00:13:13;;;;;;;4.18;1.35;;;2.70;80.60;;;1.88;56.48;100803.25;5088302;28;20144;-43
2021/03/18 00:15:40;;;;;;;3.40;1.08;;;2.50;82.10;;;1.73;57.59;100804.03;5068649;28;20036;-46
2021/03/18 00:18:09;;;;;;;3.75;1.08;;;2.40;84.20;;;1.56;58.05;100803.16;5087741;28;20376;-42
2021/03/18 00:20:35;;;;;;;2.25;0.93;;;2.20;85.80;;;1.69;57.63;100810.25;5087889;28;20057;-41
2021/03/18 00:23:03;;;;;;;2.80;1.05;;;2.20;85.50;;;1.78;57.49;100809.78;5068744;28;20024;-45
2021/03/18 00:25:30;;;;;;;4.95;1.10;;;2.30;85.60;;;1.91;56.61;100805.63;5079103;28;20398;-45
2021/03/18 00:27:56;;;;;;;3.33;0.85;;;2.40;84.80;;;1.92;56.54;100809.84;5088866;28;20036;-45
2021/03/18 00:30:24;;;;;;;3.63;1.13;;;2.50;84.60;;;1.85;57.03;100799.09;5086448;28;20036;-48
2021/03/18 00:32:52;;;;;;;2.78;1.00;;;2.40;85.40;;;1.71;57.56;100808.44;5088193;28;20379;-45
2021/03/18 00:35:21;;;;;;;4.47;0.95;;;2.40;86.30;;;1.63;58.02;100809.66;5087950;28;20047;-43
2021/03/18 00:37:49;;;;;;;7.80;0.98;;;2.20;86.40;;;1.57;58.89;100822.81;5088628;28;20059;-45
2021/03/18 00:40:24;;;;;;;2.30;0.70;;;2.20;88.80;;;1.67;58.68;100824.00;5087681;28;20032;-44
2021/03/18 00:43:04;;;;;;;3.00;0.77;;;2.20;88.90;;;1.78;58.20;100815.75;5088241;28;20054;-44
2021/03/18 00:45:33;;;;;;;5.30;1.35;;;2.30;87.70;;;1.88;56.93;100819.50;5076072;28;20047;-46
2021/03/18 00:48:00;;;;;;;2.10;0.75;;;2.40;86.20;;;1.95;56.82;100825.13;5067348;28;20036;-42
2021/03/18 00:50:41;;;;;;;3.10;1.10;;;2.40;85.50;;;1.93;57.38;100811.50;5092575;28;20122;-44
2021/03/18 00:53:10;;;;;;;3.03;1.95;;;2.50;85.20;;;1.78;58.02;100817.47;5091915;28;20062;-50
2021/03/18 00:55:37;;;;;;;4.75;0.98;;;2.40;87.20;;;1.67;58.45;100815.47;5091700;28;20089;-48
2021/03/18 00:58:04;;;;;;;3.60;1.33;;;2.30;87.80;;;1.48;58.89;100818.13;5092351;28;20832;-46
2021/03/18 01:00:42;;;;;;;6.20;1.35;;;2.20;89.50;;;1.24;60.58;100822.78;5091409;28;20068;-46
2021/03/18 01:03:10;;;;;;;6.72;1.40;;;2.00;90.70;;;1.10;61.14;100824.38;5092218;28;20040;-43
2021/03/18 01:05:50;;;;;;;7.63;1.40;;;1.80;92.20;;;1.03;62.29;100820.44;5072716;28;20193;-45
2021/03/18 01:08:20;;;;;;;3.67;1.50;;;1.70;93.80;;;0.95;62.20;100824.19;5075981;28;20040;-48
2021/03/18 01:10:54;;;;;;;3.67;1.73;;;1.60;94.90;;;0.87;62.58;100825.50;5072857;28;20028;-42
2021/03/18 01:13:21;;;;;;;2.65;1.05;;;1.50;95.50;;;0.82;62.62;100818.03;5059012;28;20480;-43
2021/03/18 01:15:53;;;;;;;4.25;1.88;;;1.50;96.50;;;0.84;63.13;100821.34;5083865;28;20135;-44
2021/03/18 01:18:23;;;;;;;4.10;1.20;;;1.50;97.00;;;0.78;62.87;100821.66;5087800;28;20043;-43
2021/03/18 01:20:50;;;;;;;4.97;1.73;;;1.40;97.30;;;0.74;63.44;100822.69;5074593;28;20186;-41
2021/03/18 01:23:16;;;;;;;4.70;1.10;;;1.40;97.90;;;0.72;62.92;100816.81;5071536;28;20033;-42
2021/03/18 01:25:43;;;;;;;2.65;0.90;;;1.30;97.70;;;0.75;63.42;100811.53;5079474;28;20133;-43
2021/03/18 01:28:18;;;;;;;3.33;1.02;;;1.30;97.70;;;0.70;62.89;100813.47;5071253;28;20044;-41
2021/03/18 01:30:44;;;;;;;4.78;1.38;;;1.30;97.40;;;0.61;63.53;100819.03;5075549;28;20524;-46
2021/03/18 01:33:10;;;;;;;4.43;0.98;;;1.20;98.70;;;0.54;64.38;100818.50;5090259;28;20419;-41
2021/03/18 01:35:36;;;;;;;3.83;0.95;;;1.20;99.70;;;0.64;63.91;100816.34;5084844;28;20033;-40
2021/03/18 01:38:03;;;;;;;3.78;1.10;;;1.20;98.90;;;0.67;63.17;100808.50;5074810;28;20070;-41
2021/03/18 01:40:34;;;;;;;2.42;0.70;;;1.30;98.50;;;0.60;63.70;100809.69;5064287;28;20040;-42
2021/03/18 01:43:00;;;;;;;3.28;1.13;;;1.20;99.00;;;0.60;63.25;100812.25;5071987;28;20043;-43
2021/03/18 01:45:27;;;;;;;6.30;1.08;;;1.20;98.50;;;0.59;63.42;100815.72;5077773;28;20035;-42
2021/03/18 01:47:56;;;;;;;2.88;1.10;;;1.20;98.30;;;0.60;63.02;100809.69;5082677;28;20122;-43
2021/03/18 01:50:27;;;;;;;4.72;1.55;;;1.20;98.30;;;0.62;62.53;100813.84;5071050;28;20041;-45
2021/03/18 01:52:56;;;;;;;6.93;1.52;;;1.20;97.60;;;0.61;62.48;100814.75;5071309;28;20120;-45
2021/03/18 01:55:29;;;;;;;3.72;0.73;;;1.20;98.00;;;0.67;62.67;100813.63;5075204;28;20044;-41
2021/03/18 01:57:56;;;;;;;3.28;1.35;;;1.20;97.50;;;0.72;62.04;100811.69;5091541;28;20399;-45
2021/03/18 02:00:25;;;;;;;4.07;0.98;;;1.30;97.00;;;0.71;61.59;100804.06;5090572;28;20035;-44
2021/03/18 02:02:51;;;;;;;1.80;0.50;;;1.30;96.30;;;0.75;61.99;100811.53;5091165;28;20416;-50
2021/03/18 02:05:18;;;;;;;4.93;1.20;;;1.30;96.10;;;0.73;61.31;100821.03;5090457;28;20368;-43
2021/03/18 02:07:44;;;;;;;4.82;1.40;;;1.30;95.60;;;0.58;62.83;100812.31;5091172;28;20142;-43
2021/03/18 02:10:11;;;;;;;2.35;0.70;;;1.20;97.80;;;0.46;63.77;100812.09;5090557;28;20040;-44
2021/03/18 02:12:37;;;;;;;6.05;1.55;;;1.10;99.00;;;0.47;63.21;100814.59;5090484;28;20042;-45
2021/03/18 02:15:07;;;;;;;3.00;1.88;;;1.10;98.50;;;0.52;62.52;100810.03;5090027;28;20533;-44
2021/03/18 02:18:03;;;;;;;4.13;1.45;;;1.10;98.00;;;0.42;64.45;100803.72;5090804;28;20044;-41
2021/03/18 02:21:19;;;;;;;5.30;1.47;;;1.10;98.80;;;0.35;64.25;100804.91;5072467;28;20496;-40
2021/03/18 02:24:19;;;;;;;4.28;1.10;;;1.00;98.90;;;0.34;65.59;100803.25;5090955;28;20048;-46
2021/03/18 02:28:02;;;;;;;3.75;1.27;;;1.00;99.90;;;0.32;66.18;100811.00;5084847;28;20068;-43
2021/03/18 02:30:40;;;;;;;4.28;1.58;;;1.00;99.90;;;0.19;65.49;100799.66;5053395;28;20059;-45
2021/03/18 02:33:43;;;;;;;10.20;2.80;;;0.90;99.90;;;0.14;67.20;100813.56;5072441;28;20047;-41
2021/03/18 02:36:22;;;;;;;2.72;1.10;;;0.80;99.90;;;0.01;67.43;100823.53;5089906;28;20085;-44
2021/03/18 02:38:58;;;;;;;4.53;0.95;;;0.70;99.90;;;-0.10;67.24;100823.19;5057079;28;20070;-45
2021/03/18 02:41:59;;;;;;;5.50;1.35;;;0.60;99.90;;;-0.06;68.52;100829.84;5089667;28;20047;-47
2021/03/18 02:44:29;;;;;;;3.63;1.15;;;0.60;99.90;;;-0.10;67.25;100828.31;5030054;28;20064;-45
2021/03/18 02:47:11;;;;;;;2.95;1.23;;;0.60;99.90;;;-0.12;68.08;100822.44;5067074;28;20164;-46
2021/03/18 02:49:44;;;;;;;3.97;0.98;;;0.50;99.90;;;-0.13;67.48;100826.72;5089530;28;20040;-45
2021/03/18 02:52:15;;;;;;;3.58;1.05;;;0.50;99.90;;;-0.14;67.32;100821.66;5090702;28;20032;-39
2021/03/18 02:54:43;;;;;;;2.47;0.73;;;0.50;99.90;;;-0.13;67.17;100831.03;5088433;28;20043;-45
2021/03/18 02:57:12;;;;;;;2.80;0.55;;;0.50;99.90;;;-0.01;66.72;100822.78;5072370;28;20032;-46
2021/03/18 02:59:42;;;;;;;7.68;0.90;;;0.60;99.90;;;0.19;65.20;100832.97;5071140;28;20071;-42
2021/03/18 03:02:17;;;;;;;3.45;0.90;;;0.70;99.90;;;0.36;64.44;100828.81;5072083;28;20117;-46
2021/03/18 03:04:45;;;;;;;4.33;1.13;;;0.80;99.90;;;0.49;63.48;100822.19;5089341;28;20493;-48
2021/03/18 03:07:13;;;;;;;2.60;0.85;;;1.00;99.90;;;0.59;63.17;100825.97;5071907;28;20103;-41
2021/03/18 03:09:43;;;;;;;2.83;0.80;;;1.10;99.80;;;0.65;62.78;100829.09;5070963;28;20024;-44
2021/03/18 03:12:10;;;;;;;4.68;1.00;;;1.20;99.00;;;0.69;62.92;100827.22;5088128;28;20050;-47
2021/03/18 03:14:39;;;;;;;7.43;1.20;;;1.20;98.60;;;0.76;62.11;100830.31;5050955;28;20449;-46
2021/03/18 03:17:06;;;;;;;5.40;0.77;;;1.30;98.30;;;0.83;61.48;100829.94;5079931;28;20032;-47
2021/03/18 03:19:38;;;;;;;3.15;1.02;;;1.40;97.60;;;0.75;63.32;100832.06;5071682;28;20036;-46
2021/03/18 03:22:06;;;;;;;4.65;1.08;;;1.40;99.00;;;0.68;63.63;100829.84;5089022;28;20372;-42
2021/03/18 03:24:37;;;;;;;3.50;0.93;;;1.30;99.20;;;0.73;63.18;100826.16;5087834;28;20036;-45
2021/03/18 03:27:05;;;;;;;5.30;0.90;;;1.30;98.90;;;0.81;62.39;100831.75;5070376;28;20032;-39
2021/03/18 03:29:31;;;;;;;5.68;1.23;;;1.40;98.50;;;0.80;62.34;100835.22;5089556;28;20464;-41
2021/03/18 03:31:58;;;;;;;4.97;0.82;;;1.40;97.90;;;0.87;61.70;100831.47;5088685;28;20494;-44
2021/03/18 03:34:24;;;;;;;4.10;0.80;;;1.50;97.30;;;0.95;61.53;100843.91;5088518;28;20040;-44
2021/03/18 03:36:50;;;;;;;4.22;0.75;;;1.50;96.90;;;0.93;61.27;100841.44;5066699;28;20463;-44
2021/03/18 03:39:17;;;;;;;3.20;0.88;;;1.50;96.80;;;0.92;62.35;100842.34;5078870;28;20479;-44
2021/03/18 03:41:44;;;;;;;2.78;0.98;;;1.50;97.90;;;0.86;62.58;100840.06;5070225;28;20024;-41
2021/03/18 03:44:10;;;;;;;4.35;1.05;;;1.50;98.00;;;0.85;62.80;100842.72;5088205;28;20052;-46
2021/03/18 03:46:36;;;;;;;2.92;0.93;;;1.50;98.20;;;0.84;62.76;100843.59;5088246;28;20088;-43
2021/03/18 03:49:04;;;;;;;4.32;1.05;;;1.50;98.60;;;0.82;63.40;100848.81;5069963;28;22272;-44
2021/03/18 03:52:13;;;;;;;2.42;0.90;;;1.40;98.90;;;0.79;64.00;100848.97;5089080;28;20039;-42
2021/03/18 03:54:48;;;;;;;5.57;1.20;;;1.40;99.40;;;0.78;64.16;100847.28;5088233;28;20116;-44
2021/03/18 03:57:31;;;;;;;3.47;1.10;;;1.40;99.80;;;0.85;64.53;100855.53;5071609;28;20036;-46
2021/03/18 03:59:59;;;;;;;4.55;1.23;;;1.40;99.80;;;0.80;64.18;100850.63;5070879;28;20098;-45
2021/03/18 04:04:52;;;;;;;7.60;1.33;;;1.40;99.90;;;0.97;62.68;100858.31;4802353;22;20057;-41
2021/03/18 04:07:26;;;;;;;4.68;1.00;;;1.50;99.10;;;0.90;63.20;100862.09;5068705;28;20060;-44
2021/03/18 04:09:53;;;;;;;2.80;0.82;;;1.50;99.00;;;0.74;64.00;100856.03;5068612;28;20050;-44
2021/03/18 04:12:24;;;;;;;1.95;0.47;;;1.40;99.40;;;0.76;63.25;100859.38;5068664;28;20036;-44
2021/03/18 04:14:56;;;;;;;2.83;0.60;;;1.40;99.10;;;0.70;63.57;100857.09;5051231;28;20032;-46
2021/03/18 04:17:24;;;;;;;3.55;0.50;;;1.30;99.40;;;0.71;63.03;100860.47;5068341;28;20372;-45
2021/03/18 04:19:57;;;;;;;2.45;0.70;;;1.30;99.30;;;0.74;62.99;100861.16;5051055;28;20044;-41
2021/03/18 04:22:26;;;;;;;2.67;0.40;;;1.30;99.30;;;0.71;62.97;100866.44;5050455;28;20098;-48
2021/03/18 04:24:53;;;;;;;3.00;0.73;;;1.30;99.40;;;0.65;63.40;100861.59;5068430;28;20376;-42
2021/03/18 04:27:20;;;;;;;4.15;0.50;;;1.30;98.70;;;0.65;62.79;100866.72;5050705;28;20028;-45
2021/03/18 04:29:47;;;;;;;3.28;0.60;;;1.30;98.00;;;0.60;63.49;100866.09;5068191;28;20426;-43
2021/03/18 04:32:15;;;;;;;2.45;0.47;;;1.20;98.90;;;0.59;63.15;100874.69;5050670;28;20056;-47
2021/03/18 04:34:44;;;;;;;4.28;0.40;;;1.20;98.70;;;0.63;62.80;100863.41;5068468;28;20044;-42
2021/03/18 04:37:13;;;;;;;3.00;0.50;;;1.20;98.80;;;0.64;63.48;100863.31;5068344;28;20028;-41
2021/03/18 04:39:41;;;;;;;2.08;0.50;;;1.20;99.20;;;0.64;63.23;100862.50;5050716;28;20036;-46
2021/03/18 04:42:09;;;;;;;4.75;0.65;;;1.30;98.70;;;0.61;63.45;100862.63;5050588;28;20033;-43
2021/03/18 04:44:36;;;;;;;2.20;0.40;;;1.30;99.20;;;0.71;62.70;100855.34;5050328;28;20033;-40
2021/03/18 04:47:03;;;;;;;2.65;0.38;;;1.30;98.60;;;0.86;61.80;100863.16;5068714;28;20135;-45
2021/03/18 04:49:29;;;;;;;1.63;0.47;;;1.40;97.00;;;1.08;59.96;100844.16;5068188;28;20060;-43
2021/03/18 04:51:56;;;;;;;1.35;0.40;;;1.50;94.90;;;1.25;58.78;100857.00;5033492;28;20044;-43
2021/03/18 04:54:23;;;;;;;1.98;0.55;;;1.70;93.10;;;1.41;57.40;100857.91;5068153;28;20086;-46
2021/03/18 04:56:50;;;;;;;2.60;0.60;;;1.90;91.50;;;1.44;57.63;100860.28;5068060;28;20051;-47
2021/03/18 04:59:18;;;;;;;2.55;0.50;;;2.00;91.40;;;1.46;57.28;100861.03;5050096;28;20043;-41
2021/03/18 05:01:51;;;;;;;4.90;0.35;;;2.00;90.90;;;1.46;57.10;100861.03;5050037;28;20033;-41
2021/03/18 05:04:20;;;;;;;2.33;0.47;;;2.00;90.40;;;1.43;57.33;100853.47;5050021;28;20056;-46
2021/03/18 05:06:54;;;;;;;3.38;0.50;;;2.00;90.10;;;1.40;57.22;100858.81;5049927;28;20137;-45
2021/03/18 05:09:25;;;;;;;2.28;0.30;;;2.00;89.90;;;1.37;57.64;100856.38;5049799;28;20484;-47
2021/03/18 05:11:55;;;;;;;1.98;0.30;;;2.00;90.40;;;1.29;57.98;100853.38;5068177;28;20032;-45
2021/03/18 05:14:23;;;;;;;1.70;0.40;;;1.90;90.60;;;1.26;58.45;100858.66;5067863;28;20028;-43
2021/03/18 05:16:51;;;;;;;3.58;0.55;;;1.80;91.20;;;1.26;59.04;100858.66;5067952;28;20104;-48
2021/03/18 05:19:18;;;;;;;2.53;0.60;;;1.80;92.60;;;1.25;58.65;100868.09;5050216;28;20025;-48
2021/03/18 05:21:48;;;;;;;4.07;0.70;;;1.80;91.40;;;1.22;58.74;100862.28;5067693;28;20024;-44
2021/03/18 05:24:14;;;;;;;7.32;0.85;;;1.80;91.50;;;1.24;58.24;100857.91;5050086;28;20032;-42
2021/03/18 05:26:42;;;;;;;5.32;0.90;;;1.80;91.30;;;1.25;58.47;100857.81;5067884;28;20082;-41
2021/03/18 05:29:10;;;;;;;3.50;0.80;;;1.80;91.30;;;1.27;58.44;100855.19;5067712;28;20078;-44
2021/03/18 05:31:36;;;;;;;3.78;0.47;;;1.80;91.30;;;1.25;58.74;100857.00;5068242;28;20028;-44
2021/03/18 05:34:03;;;;;;;5.15;0.73;;;1.80;91.40;;;1.27;58.46;100866.28;5068054;28;20028;-44
2021/03/18 05:36:29;;;;;;;11.75;1.27;;;1.80;91.50;;;1.26;58.83;100859.47;5071223;28;20071;-45
2021/03/18 05:38:56;;;;;;;6.75;1.67;;;1.90;91.90;;;1.32;58.86;100858.34;5071539;28;20037;-43
2021/03/18 05:41:22;;;;;;;4.18;1.35;;;1.90;92.20;;;1.42;60.86;100864.66;5071588;28;20113;-44
2021/03/18 05:43:49;;;;;;;4.53;0.77;;;2.00;95.10;;;1.46;58.82;100866.16;5071252;28;20075;-45
2021/03/18 05:46:17;;;;;;;3.35;0.80;;;2.10;91.80;;;1.52;58.50;100868.44;5071233;28;20060;-42
2021/03/18 05:48:45;;;;;;;4.60;0.73;;;2.10;91.20;;;1.56;58.21;100876.81;5071213;28;20040;-40
2021/03/18 05:51:19;;;;;;;6.07;1.30;;;2.10;91.20;;;1.59;58.46;100872.34;5070864;28;20112;-47
2021/03/18 05:53:48;;;;;;;5.20;0.88;;;2.20;91.10;;;1.69;57.84;100861.63;5071408;28;20033;-43
2021/03/18 05:56:20;;;;;;;3.20;1.20;;;2.30;90.60;;;1.94;57.69;100873.09;5071139;28;20073;-46
2021/03/18 05:58:50;;;;;;;4.00;1.67;;;2.60;90.40;;;2.27;57.13;100865.38;5071246;28;20044;-46
2021/03/18 06:01:18;;;;;;;3.50;1.23;;;3.20;87.30;;;2.46;55.82;100860.06;5036809;28;20045;-44
2021/03/18 06:03:46;;;;;;;6.22;1.35;;;3.60;83.20;;;2.71;54.81;100864.72;5070631;28;20059;-47
2021/03/18 06:06:14;;;;;;;5.43;1.40;;;4.00;79.70;;;3.05;54.54;100865.38;5070942;28;20135;-44
2021/03/18 06:08:42;;;;;;;6.93;1.65;;;4.40;77.30;;;3.60;53.51;100863.03;5070847;28;20036;-41
2021/03/18 06:11:10;;;;;;;5.60;1.75;;;5.40;74.40;;;4.54;51.85;100857.22;5070870;28;20473;-42
2021/03/18 06:13:37;;;;;;;3.08;0.90;;;7.30;66.90;;;5.00;49.10;100857.72;5052946;28;20037;-41
2021/03/18 06:16:05;;;;;;;3.47;0.90;;;8.00;60.50;;;5.26;48.75;100870.66;5035988;28;20495;-44
2021/03/18 06:18:37;;;;;;;6.22;2.25;;;7.90;58.70;;;5.35;48.64;100875.22;5068697;28;20033;-43
2021/03/18 06:21:04;;;;;;;5.35;2.00;;;7.50;59.80;;;5.46;48.04;100872.78;5045621;28;20043;-42
2021/03/18 06:23:32;;;;;;;6.30;2.03;;;7.00;61.10;;;5.07;48.81;100862.47;5048210;28;20435;-45
2021/03/18 06:26:03;;;;;;;4.43;0.90;;;6.30;62.70;;;4.35;49.35;100872.19;5032522;28;20037;-44
2021/03/18 06:28:32;;;;;;;4.78;1.23;;;5.50;64.50;;;3.78;51.46;100866.28;5049593;28;20116;-46
2021/03/18 06:31:10;;;;;;;3.90;1.23;;;4.70;67.50;;;3.74;52.81;100873.34;5050200;28;20114;-44
2021/03/18 06:33:39;;;;;;;3.03;1.17;;;4.50;70.80;;;3.57;52.03;100876.09;5031367;28;20035;-43
2021/03/18 06:36:29;;;;;;;2.83;0.70;;;4.30;70.30;;;3.43;52.12;100873.47;5031383;28;20044;-47
2021/03/18 06:39:01;;;;;;;4.75;0.98;;;4.20;71.90;;;3.52;52.83;100878.09;5049402;28;20068;-45
2021/03/18 06:41:36;;;;;;;10.45;1.45;;;4.20;72.00;;;3.58;51.94;100882.91;5049687;28;20036;-45
2021/03/18 06:44:24;;;;;;;3.40;0.80;;;4.10;72.10;;;3.60;52.03;100879.31;5049134;28;20044;-42
2021/03/18 06:46:52;;;;;;;3.45;0.80;;;4.20;71.90;;;3.64;51.64;100882.53;5047388;28;20544;-44
2021/03/18 06:49:21;;;;;;;3.00;0.77;;;4.20;71.40;;;3.70;51.85;100874.47;5048656;28;20079;-41
2021/03/18 06:52:12;;;;;;;7.05;1.00;;;4.20;71.40;;;3.88;50.91;100875.91;5066246;22;20052;-47
2021/03/18 06:54:42;;;;;;;4.00;0.77;;;4.30;71.60;;;4.15;50.69;100872.59;5069702;28;20082;-46
2021/03/18 06:57:08;;;;;;;3.97;0.82;;;4.60;71.00;;;4.31;50.44;100868.97;5069484;28;20032;-41
2021/03/18 06:59:40;;;;;;;2.25;0.60;;;4.80;70.10;;;4.54;49.50;100874.47;5059286;28;20377;-44
2021/03/18 07:02:13;;;;;;;3.05;1.00;;;5.20;68.90;;;4.64;48.63;100870.41;5067551;28;20502;-46
2021/03/18 07:04:54;;;;;;;2.85;0.60;;;5.40;67.20;;;4.75;46.70;100872.28;5062854;28;20040;-41
2021/03/18 07:07:25;;;;;;;1.92;0.43;;;5.40;65.40;;;5.03;47.72;100856.69;5064060;28;20037;-46
2021/03/18 07:09:56;;;;;;;2.95;0.82;;;5.50;65.60;;;5.24;46.18;100865.59;5062913;28;20119;-43
2021/03/18 07:12:31;;;;;;;2.22;0.63;;;5.70;64.80;;;5.39;46.12;100863.75;5061353;28;20524;-44
2021/03/18 07:15:00;;;;;;;1.88;0.35;;;5.80;64.80;;;5.37;46.03;100868.19;5044621;28;20434;-42
2021/03/18 07:17:41;;;;;;;1.48;0.57;;;5.90;63.90;;;5.48;45.59;100864.91;5063712;28;20072;-45
2021/03/18 07:20:23;;;;;;;3.22;0.85;;;5.90;63.70;;;5.72;45.26;100859.84;5063926;28;20068;-42
2021/03/18 07:22:54;;;;;;;2.55;0.80;;;6.10;63.00;;;5.82;44.52;100861.69;5060794;28;20067;-45
2021/03/18 07:25:28;;;;;;;8.40;0.93;;;6.20;62.00;;;6.10;45.50;100863.28;5062432;28;20044;-47
2021/03/18 07:28:01;;;;;;;6.03;0.93;;;6.50;63.50;;;6.24;44.25;100852.75;5063471;28;20353;-45
2021/03/18 07:30:29;;;;;;;2.90;0.55;;;6.80;61.50;;;6.60;43.83;100853.72;5069396;28;20074;-41
2021/03/18 07:32:58;;;;;;;6.32;0.70;;;7.00;61.00;;;6.85;43.31;100848.41;5069109;28;20056;-43
2021/03/18 07:35:26;;;;;;;2.85;0.57;;;7.20;60.10;;;6.97;43.77;100851.88;5068774;28;20549;-45
2021/03/18 07:37:54;;;;;;;3.88;0.50;;;7.20;60.80;;;7.22;43.33;100853.47;5067339;28;20040;-44
2021/03/18 07:40:21;;;;;;;3.05;0.32;;;7.60;59.70;;;7.35;42.45;100850.81;5064875;28;20510;-44
2021/03/18 07:42:50;;;;;;;3.13;0.55;;;7.80;58.90;;;7.54;41.81;100849.31;5045362;28;20067;-49
2021/03/18 07:45:23;;;;;;;2.20;0.60;;;8.00;58.10;;;7.69;40.82;100847.31;5066798;28;20040;-46
2021/03/18 07:47:50;;;;;;;2.33;0.57;;;8.10;57.10;;;7.71;39.77;100845.41;5062631;28;20024;-44
2021/03/18 07:50:21;;;;;;;1.60;0.60;;;8.20;55.60;;;7.70;40.82;100841.19;5060221;28;20064;-47
2021/03/18 07:52:49;;;;;;;3.00;0.52;;;8.30;55.50;;;8.19;40.54;100842.56;5067133;28;20048;-46
2021/03/18 07:55:42;;;;;;;1.40;0.52;;;8.50;56.40;;;8.48;38.66;100843.75;5049919;28;20040;-42
2021/03/18 07:58:08;;;;;;;5.97;0.40;;;8.90;55.40;;;8.41;40.30;100833.97;5045321;28;20075;-47
2021/03/18 08:00:34;;;;;;;1.63;0.35;;;8.90;55.10;;;8.14;39.60;100834.31;5064354;28;20066;-44
2021/03/18 08:03:22;;;;;;;1.52;0.52;;;8.80;52.50;;;8.38;38.02;100832.44;5034519;28;20419;-45
2021/03/18 08:05:58;;;;;;;0.80;0.30;;;8.80;53.80;;;8.41;38.96;100831.38;5067309;28;20037;-43
2021/03/18 08:08:44;;;;;;;1.25;0.40;;;8.90;52.40;;;8.47;37.49;100830.88;5068395;28;20093;-45
2021/03/18 08:11:20;;;;;;;1.02;0.30;;;9.00;52.90;;;8.43;38.83;100830.31;5068464;28;20440;-41
2021/03/18 08:13:46;;;;;;;1.55;0.40;;;9.10;52.70;;;8.40;38.27;100825.34;5051125;28;20498;-40
2021/03/18 08:16:27;;;;;;;1.02;0.30;;;9.10;52.20;;;8.76;36.44;100826.75;5065697;28;20033;-46
2021/03/18 08:18:53;;;;;;;1.83;0.30;;;9.20;51.60;;;9.14;37.25;100820.19;5064258;28;20480;-43
2021/03/18 08:21:19;;;;;;;0.70;0.20;;;9.50;51.80;;;9.71;36.56;100830.13;5067119;28;20028;-48
2021/03/18 08:23:50;;;;;;;1.00;0.30;;;9.90;51.30;;;10.04;34.99;100826.41;5044291;28;20208;-49
2021/03/18 08:26:34;;;;;;;1.95;0.30;;;10.40;50.50;;;9.97;34.75;100836.50;5060770;28;20044;-46
2021/03/18 08:29:03;;;;;;;1.50;0.40;;;10.50;49.20;;;10.02;35.53;100824.88;5043952;28;20389;-49
2021/03/18 08:31:52;;;;;;;1.70;0.75;;;10.40;49.10;;;10.21;34.17;100820.59;5060610;28;20051;-42
2021/03/18 08:35:06;;;;;;;2.67;0.80;;;10.70;48.10;;;10.30;34.52;100819.78;5061655;28;20181;-47
2021/03/18 08:37:38;;;;;;;5.88;1.17;;;10.90;49.30;;;10.66;36.20;100814.88;5054719;28;20138;-47
2021/03/18 08:40:29;;;;;;;1.23;0.60;;;11.10;50.50;;;11.38;34.12;100824.81;5062955;28;20060;-41
2021/03/18 08:43:06;;;;;;;2.42;0.40;;;11.60;50.00;;;11.30;33.57;100814.28;5037636;28;20037;-46
2021/03/18 08:45:32;;;;;;;2.92;0.40;;;11.80;47.80;;;10.79;33.86;100815.44;5066013;28;20120;-44
2021/03/18 08:48:10;;;;;;;0.93;0.30;;;11.70;45.90;;;11.26;32.41;100815.53;5063424;28;20127;-41
2021/03/18 08:50:36;;;;;;;1.80;0.50;;;11.60;47.20;;;11.81;34.07;100820.91;5066214;28;20044;-40
2021/03/18 08:53:23;;;;;;;2.47;0.60;;;12.10;48.60;;;11.76;33.07;100812.63;5062909;28;20040;-45
2021/03/18 08:55:50;;;;;;;3.58;0.80;;;12.30;46.80;;;11.79;33.31;100820.22;5040064;28;20072;-44
2021/03/18 08:58:16;;;;;;;3.78;0.45;;;12.30;46.30;;;11.46;33.81;100813.69;5066579;28;20029;-43
2021/03/18 09:00:45;;;;;;;1.25;0.30;;;12.10;46.50;;;11.79;32.96;100815.00;5066654;28;20093;-39
2021/03/18 09:03:17;;;;;;;1.48;0.30;;;12.20;45.90;;;12.20;32.38;100808.47;5049835;28;20407;-40
2021/03/18 09:05:58;;;;;;;5.20;0.50;;;12.50;46.40;;;12.28;30.39;100808.56;5064987;28;20051;-44
2021/03/18 09:08:35;;;;;;;1.80;0.45;;;12.80;44.60;;;12.25;31.63;100811.47;5049755;28;20037;-46
2021/03/18 09:11:01;;;;;;;1.35;0.40;;;12.80;45.20;;;12.33;32.53;100810.69;5052696;28;20489;-41
2021/03/18 09:13:27;;;;;;;1.77;0.60;;;12.80;45.90;;;12.54;32.46;100808.63;5070850;28;20455;-42
2021/03/18 09:15:54;;;;;;;2.78;0.60;;;13.00;45.70;;;12.83;32.12;100808.38;5072187;28;20040;-45
2021/03/18 09:18:29;;;;;;;1.02;0.40;;;13.20;45.50;;;12.97;30.57;100802.63;5066253;28;20047;-45
2021/03/18 09:21:03;;;;;;;3.83;0.30;;;13.50;44.10;;;13.11;29.95;100803.88;5053647;28;20123;-43
2021/03/18 09:23:33;;;;;;;1.80;0.30;;;13.70;43.80;;;12.67;30.98;100797.81;5068042;28;20040;-46
2021/03/18 09:26:03;;;;;;;1.90;0.40;;;13.40;43.30;;;12.79;30.91;100796.59;5071623;28;20036;-42
2021/03/18 09:28:37;;;;;;;1.42;0.40;;;13.30;43.40;;;13.09;30.37;100798.81;5070562;28;20036;-42
2021/03/18 09:31:04;;;;;;;5.47;0.30;;;13.40;43.10;;;13.17;30.55;100801.53;5071517;28;20037;-45
2021/03/18 09:33:40;;;;;;;0.90;0.20;;;13.70;42.80;;;13.39;27.99;100799.34;5068860;28;20032;-47
2021/03/18 09:36:17;;;;;;;1.95;0.30;;;13.90;41.10;;;13.28;26.66;100790.78;5071245;28;20029;-49
2021/03/18 09:39:05;;;;;;;1.08;0.20;;;13.90;40.00;;;13.20;28.01;100784.69;5055987;28;20044;-46
2021/03/18 09:41:58;;;;;;;0.63;0.17;;;13.90;40.70;;;13.04;27.63;100785.34;5070050;28;20037;-41
2021/03/18 09:44:28;;;;;;;1.25;0.20;;;13.80;39.00;;;13.22;28.78;100788.78;5069117;28;20036;-46
2021/03/18 09:47:06;;;;;;;1.00;0.25;;;13.80;40.60;;;13.17;28.34;100782.38;5070043;28;20036;-42
2021/03/18 09:49:37;;;;;;;0.57;0.20;;;13.70;40.60;;;12.83;29.50;100777.84;5069765;28;20041;-44
2021/03/18 09:52:07;;;;;;;0.82;0.20;;;13.60;41.20;;;12.68;28.88;100778.53;5067909;28;20045;-43
2021/03/18 09:54:34;;;;;;;1.73;0.30;;;13.40;41.10;;;11.93;30.00;100773.53;5051997;28;20043;-44
2021/03/18 09:57:05;;;;;;;0.80;0.20;;;12.80;40.80;;;11.94;30.08;100772.56;5069698;28;20033;-43
2021/03/18 09:59:31;;;;;;;4.32;0.20;;;12.70;41.50;;;12.03;30.65;100776.09;5070976;28;20040;-47
2021/03/18 10:01:57;;;;;;;0.63;0.20;;;12.70;42.00;;;12.11;30.08;100775.38;5018660;28;20052;-44
2021/03/18 10:04:24;;;;;;;0.52;0.20;;;12.80;42.00;;;11.89;30.48;100772.19;5051080;28;20025;-52
2021/03/18 10:06:52;;;;;;;0.88;0.20;;;12.60;41.60;;;11.96;30.24;100773.25;5065231;28;20514;-46
2021/03/18 10:09:32;;;;;;;0.73;0.20;;;12.60;41.60;;;11.95;29.50;100770.78;5034902;28;20186;-43
2021/03/18 10:12:21;;;;;;;0.98;0.20;;;12.70;41.30;;;12.48;28.77;100764.81;5066451;28;20043;-47
2021/03/18 10:15:06;;;;;;;0.73;0.20;;;12.90;41.70;;;12.76;27.85;100765.53;5070983;28;20573;-46
2021/03/18 10:17:36;;;;;;;0.50;0.20;;;13.30;41.30;;;12.39;28.53;100763.91;5050538;28;20392;-49
2021/03/18 10:20:22;;;;;;;0.73;0.10;;;13.20;40.30;;;11.83;25.23;100756.28;5065213;28;20280;-48
2021/03/18 10:22:58;;;;;;;0.82;0.10;;;12.80;37.80;;;11.82;24.59;100755.47;5066019;28;20036;-45
2021/03/18 10:25:27;;;;;;;0.20;0.10;;;12.30;38.30;;;12.44;26.40;100751.22;5070020;28;20055;-44
2021/03/18 10:28:11;;;;;;;1.05;0.10;;;12.60;38.10;;;12.60;24.51;100740.91;5069873;28;20040;-48
2021/03/18 10:30:43;;;;;;;0.25;0.10;;;12.70;37.30;;;12.81;23.63;100745.78;5048898;28;20056;-45
2021/03/18 10:33:23;;;;;;;0.35;0.10;;;13.10;36.80;;;13.11;23.89;100738.50;5068213;28;20127;-47
2021/03/18 10:35:55;;;;;;;0.40;0.10;;;13.50;36.20;;;13.34;25.04;100733.56;5048889;28;20453;-46
2021/03/18 10:38:27;;;;;;;0.65;0.10;;;13.60;37.60;;;13.83;24.21;100719.69;5052216;28;20473;-45
2021/03/18 10:40:53;;;;;;;0.20;0.10;;;14.10;36.80;;;13.96;24.89;100721.84;5070550;28;20419;-43
2021/03/18 10:43:24;;;;;;;1.15;0.43;;;14.30;36.40;;;14.20;23.61;100721.88;5069191;28;20036;-44
2021/03/18 10:45:55;;;;;;;0.77;0.10;;;14.60;36.70;;;13.93;23.93;100717.75;5050275;28;20591;-42